createdAt,value
2023-03-07T00:00:19.834Z,8.55
2023-03-07T00:01:27.206Z,7.97
2023-03-07T00:02:32.400Z,6.95
2023-03-07T00:03:37.066Z,8.85
2023-03-07T00:04:45.052Z,8.63
2023-03-07T00:05:49.065Z,8.70
2023-03-07T00:06:56.027Z,7.43
2023-03-07T00:07:59.950Z,8.73
2023-03-07T00:09:06.816Z,9.43
2023-03-07T00:10:14.528Z,9.43
2023-03-07T00:11:19.857Z,7.35
2023-03-07T00:12:24.622Z,7.78
2023-03-07T00:13:34.639Z,8.45
2023-03-07T00:14:38.529Z,7.78
2023-03-07T00:15:42.345Z,7.40
2023-03-07T00:16:52.064Z,7.25
2023-03-07T00:17:56.230Z,7.05
2023-03-07T00:19:00.941Z,8.32
2023-03-07T00:20:09.688Z,8.55
2023-03-07T00:21:20.841Z,7.82
2023-03-07T00:22:25.317Z,9.00
2023-03-07T00:23:29.591Z,8.30
2023-03-07T00:24:34.201Z,8.25
2023-03-07T00:25:38.189Z,7.07
2023-03-07T00:26:45.529Z,7.35
2023-03-07T00:27:49.438Z,6.75
2023-03-07T00:28:55.680Z,8.40
2023-03-07T00:29:59.615Z,8.07
2023-03-07T00:31:11.879Z,7.03
2023-03-07T00:32:15.794Z,7.35
2023-03-07T00:33:19.750Z,8.05
2023-03-07T00:34:23.732Z,8.98
2023-03-07T00:35:27.461Z,8.98
2023-03-07T00:36:31.562Z,7.40
2023-03-07T00:37:35.311Z,7.75
2023-03-07T00:38:39.460Z,7.20
2023-03-07T00:39:43.455Z,6.15
2023-03-07T00:40:47.309Z,7.90
2023-03-07T00:41:50.927Z,6.97
2023-03-07T00:42:54.792Z,7.22
2023-03-07T00:43:58.713Z,6.80
2023-03-07T00:45:02.763Z,8.00
2023-03-07T00:46:14.161Z,7.32
2023-03-07T00:47:18.056Z,6.85
2023-03-07T00:48:23.463Z,6.40
2023-03-07T00:49:27.708Z,7.93
2023-03-07T00:50:31.545Z,7.32
2023-03-07T00:51:35.795Z,6.32
2023-03-07T00:52:39.474Z,8.18
2023-03-07T00:53:44.278Z,8.27
2023-03-07T00:54:48.072Z,6.50
2023-03-07T00:56:09.141Z,7.07
2023-03-07T00:57:13.091Z,6.00
2023-03-07T00:58:16.786Z,7.90
2023-03-07T00:59:20.883Z,7.43
2023-03-07T01:00:25.229Z,7.22
2023-03-07T01:01:29.051Z,5.43
2023-03-07T01:02:32.830Z,6.63
2023-03-07T01:03:37.304Z,6.82
2023-03-07T01:04:41.006Z,6.30
2023-03-07T01:05:45.622Z,6.13
2023-03-07T01:06:50.626Z,6.15
2023-03-07T01:07:54.761Z,7.68
2023-03-07T01:09:03.199Z,6.55
2023-03-07T01:10:09.387Z,5.80
2023-03-07T01:11:14.918Z,6.93
2023-03-07T01:12:20.283Z,7.93
2023-03-07T01:13:24.409Z,6.00
2023-03-07T01:14:28.084Z,7.13
2023-03-07T01:15:32.403Z,6.63
2023-03-07T01:16:38.820Z,6.22
2023-03-07T01:17:42.805Z,6.10
2023-03-07T01:18:51.940Z,6.43
2023-03-07T01:19:55.636Z,7.28
2023-03-07T01:20:59.344Z,7.28
2023-03-07T01:22:03.288Z,6.57
2023-03-07T01:23:11.217Z,8.15
2023-03-07T01:24:16.655Z,6.53
2023-03-07T01:25:20.776Z,5.85
2023-03-07T01:26:29.149Z,8.00
2023-03-07T01:27:33.430Z,7.32
2023-03-07T01:28:37.672Z,5.85
2023-03-07T01:29:41.516Z,7.28
2023-03-07T01:30:45.465Z,6.20
2023-03-07T01:31:49.396Z,5.85
2023-03-07T01:32:59.042Z,6.20
2023-03-07T01:34:04.289Z,4.82
2023-03-07T01:35:15.127Z,6.18
2023-03-07T01:36:30.760Z,7.20
2023-03-07T01:37:34.884Z,4.97
2023-03-07T01:38:38.711Z,5.40
2023-03-07T01:39:43.167Z,6.10
2023-03-07T01:40:47.438Z,6.68
2023-03-07T01:41:51.070Z,6.25
2023-03-07T01:42:55.032Z,5.90
2023-03-07T01:44:00.957Z,5.53
2023-03-07T01:45:28.095Z,5.28
2023-03-07T01:46:49.098Z,7.03
2023-03-07T01:47:52.775Z,4.40
2023-03-07T01:49:05.915Z,6.63
2023-03-07T01:50:17.974Z,5.13
2023-03-07T01:51:23.000Z,4.80
2023-03-07T01:52:41.944Z,6.05
2023-03-07T01:53:50.917Z,5.63
2023-03-07T01:55:09.693Z,5.63
2023-03-07T01:56:13.823Z,4.28
2023-03-07T01:57:23.794Z,5.45
2023-03-07T01:58:27.630Z,4.68
2023-03-07T01:59:37.117Z,5.50
2023-03-07T02:00:44.775Z,6.07
2023-03-07T02:01:53.264Z,4.88
2023-03-07T02:03:29.413Z,5.22
2023-03-07T02:04:45.100Z,4.95
2023-03-07T02:06:14.187Z,5.45
2023-03-07T02:07:25.197Z,5.50
2023-03-07T02:08:34.263Z,4.80
2023-03-07T02:09:40.920Z,4.55
2023-03-07T02:10:49.022Z,5.90
2023-03-07T02:11:53.179Z,5.25
2023-03-07T02:12:56.819Z,4.60
2023-03-07T02:14:00.639Z,6.72
2023-03-07T02:15:12.898Z,5.03
2023-03-07T02:16:17.103Z,4.50
2023-03-07T02:17:21.359Z,5.70
2023-03-07T02:18:30.249Z,5.85
2023-03-07T02:20:12.996Z,4.90
2023-03-07T02:21:22.919Z,4.78
2023-03-07T02:22:27.891Z,5.00
2023-03-07T02:23:52.117Z,4.50
2023-03-07T02:25:23.574Z,5.07
2023-03-07T02:26:32.172Z,4.70
2023-03-07T02:27:39.570Z,6.40
2023-03-07T02:28:46.644Z,7.03
2023-03-07T02:29:50.721Z,5.57
2023-03-07T02:31:05.883Z,5.90
2023-03-07T02:32:11.845Z,5.32
2023-03-07T02:33:15.808Z,5.60
2023-03-07T02:34:26.306Z,5.68
2023-03-07T02:35:30.108Z,5.32
2023-03-07T02:36:36.605Z,4.75
2023-03-07T02:37:44.615Z,5.22
2023-03-07T02:38:52.962Z,5.32
2023-03-07T02:40:01.860Z,4.95
2023-03-07T02:41:12.044Z,5.32
2023-03-07T02:42:26.547Z,4.88
2023-03-07T02:43:30.420Z,4.97
2023-03-07T02:44:34.425Z,5.88
2023-03-07T02:45:38.206Z,5.10
2023-03-07T02:46:42.143Z,5.70
2023-03-07T02:47:46.623Z,5.68
2023-03-07T02:48:50.615Z,4.45
2023-03-07T02:49:54.761Z,5.22
2023-03-07T02:50:58.767Z,5.78
2023-03-07T02:52:03.130Z,5.65
2023-03-07T02:53:10.723Z,6.57
2023-03-07T02:54:15.512Z,4.65
2023-03-07T02:55:19.650Z,6.35
2023-03-07T02:56:23.976Z,4.88
2023-03-07T02:57:27.999Z,4.93
2023-03-07T02:58:31.884Z,6.07
2023-03-07T02:59:35.955Z,4.78
2023-03-07T03:00:39.846Z,7.03
2023-03-07T03:01:43.981Z,6.20
2023-03-07T03:02:47.698Z,5.20
2023-03-07T03:03:51.610Z,6.75
2023-03-07T03:04:55.680Z,5.57
2023-03-07T03:05:59.788Z,6.53
2023-03-07T03:07:04.103Z,6.68
2023-03-07T03:08:12.759Z,6.50
2023-03-07T03:09:16.737Z,5.80
2023-03-07T03:10:20.574Z,5.55
2023-03-07T03:11:24.572Z,6.38
2023-03-07T03:12:28.103Z,5.72
2023-03-07T03:13:31.814Z,5.57
2023-03-07T03:14:35.350Z,5.70
2023-03-07T03:15:39.070Z,6.85
2023-03-07T03:16:42.873Z,6.28
2023-03-07T03:17:46.917Z,5.18
2023-03-07T03:18:50.626Z,6.30
2023-03-07T03:19:54.214Z,5.85
2023-03-07T03:20:58.139Z,6.15
2023-03-07T03:22:02.469Z,7.38
2023-03-07T03:23:10.083Z,5.40
2023-03-07T03:24:14.670Z,4.97
2023-03-07T03:25:19.126Z,5.80
2023-03-07T03:26:22.745Z,6.35
2023-03-07T03:27:26.736Z,6.15
2023-03-07T03:28:31.967Z,6.32
2023-03-07T03:29:36.058Z,5.45
2023-03-07T03:30:40.423Z,7.45
2023-03-07T03:31:45.364Z,6.22
2023-03-07T03:32:49.049Z,5.80
2023-03-07T03:33:53.276Z,5.82
2023-03-07T03:34:56.885Z,5.97
2023-03-07T03:36:13.263Z,5.43
2023-03-07T03:37:17.243Z,5.28
2023-03-07T03:38:21.135Z,5.80
2023-03-07T03:39:25.079Z,6.68
2023-03-07T03:40:28.717Z,5.47
2023-03-07T03:41:32.518Z,5.80
2023-03-07T03:42:36.288Z,5.32
2023-03-07T03:43:40.617Z,5.05
2023-03-07T03:44:44.289Z,6.60
2023-03-07T03:45:58.490Z,5.93
2023-03-07T03:47:02.414Z,6.10
2023-03-07T03:48:08.514Z,5.00
2023-03-07T03:49:13.878Z,5.78
2023-03-07T03:50:18.298Z,6.03
2023-03-07T03:51:24.180Z,5.72
2023-03-07T03:52:28.098Z,5.80
2023-03-07T03:53:34.339Z,5.45
2023-03-07T03:54:38.196Z,6.07
2023-03-07T03:55:42.393Z,6.28
2023-03-07T03:56:46.101Z,6.18
2023-03-07T03:57:50.156Z,5.22
2023-03-07T03:58:57.865Z,5.97
2023-03-07T04:00:01.435Z,6.25
2023-03-07T04:01:09.799Z,7.47
2023-03-07T04:02:14.198Z,5.75
2023-03-07T04:03:17.936Z,5.15
2023-03-07T04:04:23.093Z,5.63
2023-03-07T04:05:27.222Z,6.57
2023-03-07T04:06:35.030Z,4.75
2023-03-07T04:07:39.364Z,5.10
2023-03-07T04:08:43.312Z,4.63
2023-03-07T04:09:47.050Z,5.45
2023-03-07T04:10:50.736Z,6.45
2023-03-07T04:11:54.832Z,6.28
2023-03-07T04:12:58.492Z,6.13
2023-03-07T04:14:02.693Z,5.35
2023-03-07T04:15:12.827Z,5.90
2023-03-07T04:16:18.229Z,5.45
2023-03-07T04:17:22.193Z,5.55
2023-03-07T04:18:26.100Z,6.10
2023-03-07T04:19:29.691Z,6.07
2023-03-07T04:20:33.557Z,6.85
2023-03-07T04:21:37.426Z,6.30
2023-03-07T04:22:41.338Z,5.75
2023-03-07T04:23:44.942Z,5.57
2023-03-07T04:24:48.554Z,5.82
2023-03-07T04:25:58.744Z,5.55
2023-03-07T04:27:02.477Z,6.05
2023-03-07T04:28:09.541Z,5.25
2023-03-07T04:29:13.649Z,6.25
2023-03-07T04:30:17.559Z,6.78
2023-03-07T04:31:27.619Z,5.35
2023-03-07T04:32:31.627Z,6.30
2023-03-07T04:33:38.574Z,6.07
2023-03-07T04:34:42.679Z,6.22
2023-03-07T04:35:46.976Z,5.22
2023-03-07T04:36:51.028Z,5.53
2023-03-07T04:37:54.613Z,5.45
2023-03-07T04:38:58.249Z,5.05
2023-03-07T04:40:02.260Z,6.38
2023-03-07T04:41:13.686Z,5.13
2023-03-07T04:42:18.539Z,4.97
2023-03-07T04:43:22.912Z,6.05
2023-03-07T04:44:27.063Z,5.10
2023-03-07T04:45:37.449Z,5.10
2023-03-07T04:46:41.977Z,5.35
2023-03-07T04:47:45.750Z,5.47
2023-03-07T04:48:49.380Z,5.43
2023-03-07T04:49:53.057Z,7.22
2023-03-07T04:50:57.079Z,4.85
2023-03-07T04:52:00.866Z,5.80
2023-03-07T04:53:08.018Z,5.53
2023-03-07T04:54:13.074Z,4.93
2023-03-07T04:55:17.072Z,4.90
2023-03-07T04:56:20.849Z,6.07
2023-03-07T04:57:24.489Z,5.50
2023-03-07T04:58:29.932Z,5.50
2023-03-07T04:59:36.547Z,5.13
2023-03-07T05:00:45.832Z,4.80
2023-03-07T05:01:49.645Z,5.35
2023-03-07T05:02:58.791Z,4.88
2023-03-07T05:04:03.150Z,4.20
2023-03-07T05:05:13.341Z,5.47
2023-03-07T05:06:17.707Z,4.78
2023-03-07T05:07:21.249Z,6.38
2023-03-07T05:08:24.888Z,4.63
2023-03-07T05:09:28.674Z,6.38
2023-03-07T05:10:34.256Z,4.68
2023-03-07T05:11:37.852Z,4.95
2023-03-07T05:12:41.450Z,3.78
2023-03-07T05:13:45.548Z,5.22
2023-03-07T05:14:49.295Z,4.65
2023-03-07T05:15:55.330Z,4.80
2023-03-07T05:16:58.969Z,5.93
2023-03-07T05:18:03.151Z,5.25
2023-03-07T05:19:10.767Z,4.15
2023-03-07T05:20:14.685Z,4.32
2023-03-07T05:21:18.332Z,4.47
2023-03-07T05:22:22.155Z,4.65
2023-03-07T05:23:27.101Z,5.15
2023-03-07T05:24:30.777Z,5.90
2023-03-07T05:25:35.410Z,5.43
2023-03-07T05:26:39.098Z,6.50
2023-03-07T05:27:43.276Z,5.65
2023-03-07T05:28:47.690Z,5.80
2023-03-07T05:29:51.720Z,5.60
2023-03-07T05:30:55.958Z,5.75
2023-03-07T05:31:59.642Z,4.68
2023-03-07T05:33:03.618Z,4.65
2023-03-07T05:34:12.893Z,5.72
2023-03-07T05:35:16.866Z,3.97
2023-03-07T05:36:20.784Z,4.47
2023-03-07T05:37:24.753Z,5.78
2023-03-07T05:38:28.999Z,5.35
2023-03-07T05:39:32.599Z,3.92
2023-03-07T05:40:37.127Z,4.85
2023-03-07T05:41:40.740Z,4.05
2023-03-07T05:42:44.825Z,3.65
2023-03-07T05:43:48.481Z,4.63
2023-03-07T05:44:52.268Z,4.60
2023-03-07T05:45:55.988Z,5.18
2023-03-07T05:47:00.079Z,4.68
2023-03-07T05:48:04.092Z,5.38
2023-03-07T05:49:11.040Z,5.03
2023-03-07T05:50:14.974Z,4.40
2023-03-07T05:51:18.663Z,4.35
2023-03-07T05:52:22.461Z,4.45
2023-03-07T05:53:26.663Z,4.55
2023-03-07T05:54:31.077Z,3.92
2023-03-07T05:55:35.252Z,3.53
2023-03-07T05:56:39.123Z,5.05
2023-03-07T05:57:43.357Z,5.20
2023-03-07T05:58:46.990Z,4.88
2023-03-07T05:59:50.968Z,4.85
2023-03-07T06:00:55.054Z,4.28
2023-03-07T06:01:59.060Z,4.57
2023-03-07T06:03:08.711Z,4.80
2023-03-07T06:04:13.090Z,4.70
2023-03-07T06:05:17.039Z,4.57
2023-03-07T06:06:21.034Z,5.40
2023-03-07T06:07:25.466Z,5.43
2023-03-07T06:08:29.910Z,4.32
2023-03-07T06:09:34.507Z,4.40
2023-03-07T06:10:40.342Z,4.13
2023-03-07T06:11:44.312Z,4.95
2023-03-07T06:12:53.699Z,4.05
2023-03-07T06:13:58.063Z,5.50
2023-03-07T06:15:02.633Z,4.53
2023-03-07T06:16:10.971Z,4.13
2023-03-07T06:17:14.666Z,4.72
2023-03-07T06:18:19.458Z,4.70
2023-03-07T06:19:23.943Z,4.40
2023-03-07T06:20:28.534Z,4.63
2023-03-07T06:21:32.405Z,3.67
2023-03-07T06:22:38.544Z,4.07
2023-03-07T06:23:43.401Z,4.30
2023-03-07T06:24:47.486Z,5.05
2023-03-07T06:25:51.309Z,4.28
2023-03-07T06:26:54.911Z,4.78
2023-03-07T06:28:01.109Z,5.03
2023-03-07T06:29:08.944Z,5.10
2023-03-07T06:30:13.611Z,4.03
2023-03-07T06:31:19.790Z,4.70
2023-03-07T06:32:23.535Z,5.00
2023-03-07T06:33:27.467Z,4.53
2023-03-07T06:34:31.691Z,4.15
2023-03-07T06:35:40.080Z,5.40
2023-03-07T06:36:43.768Z,4.40
2023-03-07T06:37:47.835Z,4.90
2023-03-07T06:38:51.892Z,4.28
2023-03-07T06:39:55.893Z,4.25
2023-03-07T06:41:00.026Z,4.95
2023-03-07T06:42:03.815Z,5.68
2023-03-07T06:43:12.114Z,4.07
2023-03-07T06:44:18.909Z,4.78
2023-03-07T06:45:22.530Z,4.65
2023-03-07T06:46:26.276Z,4.95
2023-03-07T06:47:30.186Z,4.70
2023-03-07T06:48:36.185Z,5.28
2023-03-07T06:49:43.066Z,4.03
2023-03-07T06:50:47.823Z,4.85
2023-03-07T06:51:52.899Z,5.38
2023-03-07T06:52:57.974Z,4.70
2023-03-07T06:54:01.856Z,4.25
2023-03-07T06:55:09.254Z,3.65
2023-03-07T06:56:13.574Z,3.95
2023-03-07T06:57:17.761Z,4.53
2023-03-07T06:58:21.857Z,4.00
2023-03-07T06:59:25.489Z,4.57
2023-03-07T07:00:29.605Z,4.88
2023-03-07T07:01:35.871Z,4.75
2023-03-07T07:02:40.305Z,4.95
2023-03-07T07:03:44.765Z,4.30
2023-03-07T07:04:49.036Z,4.68
2023-03-07T07:05:52.869Z,4.68
2023-03-07T07:06:56.466Z,4.78
2023-03-07T07:08:00.990Z,5.35
2023-03-07T07:09:07.131Z,5.13
2023-03-07T07:10:13.685Z,5.13
2023-03-07T07:11:17.382Z,4.35
2023-03-07T07:12:21.910Z,5.18
2023-03-07T07:13:25.827Z,4.93
2023-03-07T07:14:29.591Z,3.78
2023-03-07T07:15:33.879Z,5.60
2023-03-07T07:16:37.678Z,4.43
2023-03-07T07:17:41.409Z,4.55
2023-03-07T07:18:45.905Z,5.18
2023-03-07T07:19:49.687Z,4.65
2023-03-07T07:20:56.939Z,4.68
2023-03-07T07:22:00.975Z,4.28
2023-03-07T07:23:04.645Z,4.50
2023-03-07T07:24:13.247Z,3.58
2023-03-07T07:25:17.256Z,4.25
2023-03-07T07:26:20.850Z,3.63
2023-03-07T07:27:24.633Z,4.05
2023-03-07T07:28:28.534Z,5.50
2023-03-07T07:29:32.580Z,5.13
2023-03-07T07:30:36.329Z,4.95
2023-03-07T07:31:40.167Z,4.68
2023-03-07T07:32:45.223Z,4.05
2023-03-07T07:33:48.993Z,5.57
2023-03-07T07:34:52.669Z,4.18
2023-03-07T07:35:56.418Z,5.20
2023-03-07T07:37:00.263Z,5.15
2023-03-07T07:38:05.670Z,3.97
2023-03-07T07:39:11.654Z,5.13
2023-03-07T07:40:15.435Z,4.43
2023-03-07T07:41:19.243Z,5.85
2023-03-07T07:42:23.688Z,4.97
2023-03-07T07:43:27.362Z,4.78
2023-03-07T07:44:31.967Z,3.83
2023-03-07T07:45:40.888Z,4.00
2023-03-07T07:46:44.994Z,3.22
2023-03-07T07:47:50.597Z,3.40
2023-03-07T07:48:56.156Z,4.07
2023-03-07T07:50:00.052Z,4.57
2023-03-07T07:51:12.450Z,4.03
2023-03-07T07:52:22.433Z,3.78
2023-03-07T07:53:26.041Z,3.97
2023-03-07T07:54:30.029Z,3.33
2023-03-07T07:55:33.901Z,4.53
2023-03-07T07:56:37.777Z,3.08
2023-03-07T07:57:43.062Z,3.47
2023-03-07T07:58:48.545Z,3.15
2023-03-07T07:59:52.645Z,3.25
2023-03-07T08:00:57.002Z,3.35
2023-03-07T08:02:02.098Z,3.55
2023-03-07T08:03:11.919Z,4.00
2023-03-07T08:04:16.448Z,3.67
2023-03-07T08:05:22.617Z,3.90
2023-03-07T08:06:28.508Z,3.22
2023-03-07T08:07:35.480Z,3.70
2023-03-07T08:08:39.965Z,3.92
2023-03-07T08:09:46.688Z,4.00
2023-03-07T08:10:50.399Z,4.18
2023-03-07T08:11:54.427Z,4.20
2023-03-07T08:12:58.258Z,3.78
2023-03-07T08:14:03.862Z,3.53
2023-03-07T08:15:11.734Z,4.03
2023-03-07T08:16:20.101Z,3.25
2023-03-07T08:17:25.182Z,4.05
2023-03-07T08:18:31.310Z,3.58
2023-03-07T08:19:35.450Z,2.80
2023-03-07T08:20:41.358Z,2.95
2023-03-07T08:21:45.047Z,3.42
2023-03-07T08:22:50.759Z,2.95
2023-03-07T08:23:55.916Z,4.22
2023-03-07T08:25:01.430Z,3.58
2023-03-07T08:26:10.767Z,3.30
2023-03-07T08:27:14.570Z,3.25
2023-03-07T08:28:18.435Z,2.97
2023-03-07T08:29:22.952Z,2.50
2023-03-07T08:30:29.958Z,2.65
2023-03-07T08:31:44.482Z,3.15
2023-03-07T08:32:53.912Z,3.20
2023-03-07T08:33:57.682Z,3.38
2023-03-07T08:35:01.810Z,3.72
2023-03-07T08:36:12.580Z,3.53
2023-03-07T08:37:16.780Z,3.45
2023-03-07T08:38:20.638Z,3.03
2023-03-07T08:39:25.496Z,3.35
2023-03-07T08:40:31.196Z,3.78
2023-03-07T08:41:35.052Z,3.30
2023-03-07T08:42:39.033Z,3.03
2023-03-07T08:43:48.668Z,3.67
2023-03-07T08:44:52.737Z,2.95
2023-03-07T08:45:59.281Z,3.30
2023-03-07T08:47:03.499Z,2.65
2023-03-07T08:48:11.106Z,3.47
2023-03-07T08:49:15.267Z,2.75
2023-03-07T08:50:19.725Z,3.83
2023-03-07T08:51:23.425Z,2.47
2023-03-07T08:52:27.104Z,4.20
2023-03-07T08:53:30.702Z,3.55
2023-03-07T08:54:34.590Z,2.67
2023-03-07T08:55:43.549Z,2.85
2023-03-07T08:56:47.796Z,3.85
2023-03-07T08:57:51.659Z,3.45
2023-03-07T08:58:55.422Z,2.65
2023-03-07T09:00:01.610Z,4.15
2023-03-07T09:01:08.825Z,3.70
2023-03-07T09:02:12.984Z,3.25
2023-03-07T09:03:16.745Z,3.05
2023-03-07T09:04:20.600Z,2.90
2023-03-07T09:05:25.170Z,4.07
2023-03-07T09:06:29.381Z,2.83
2023-03-07T09:07:34.152Z,3.75
2023-03-07T09:08:37.876Z,3.45
2023-03-07T09:09:41.775Z,3.88
2023-03-07T09:10:45.798Z,4.22
2023-03-07T09:11:49.548Z,3.70
2023-03-07T09:12:55.408Z,4.30
2023-03-07T09:13:59.256Z,3.47
2023-03-07T09:15:03.226Z,3.80
2023-03-07T09:16:08.383Z,3.92
2023-03-07T09:17:13.422Z,3.45
2023-03-07T09:18:17.233Z,3.75
2023-03-07T09:19:20.969Z,4.32
2023-03-07T09:20:25.007Z,4.03
2023-03-07T09:21:28.902Z,4.38
2023-03-07T09:22:33.149Z,3.13
2023-03-07T09:23:36.962Z,3.83
2023-03-07T09:24:40.815Z,3.53
2023-03-07T09:25:44.868Z,3.67
2023-03-07T09:26:49.027Z,4.88
2023-03-07T09:27:55.620Z,3.42
2023-03-07T09:28:59.676Z,2.63
2023-03-07T09:30:03.981Z,3.25
2023-03-07T09:31:13.923Z,4.00
2023-03-07T09:32:17.968Z,3.25
2023-03-07T09:33:23.001Z,3.38
2023-03-07T09:34:26.897Z,2.65
2023-03-07T09:35:30.695Z,2.58
2023-03-07T09:36:34.648Z,3.08
2023-03-07T09:37:38.664Z,2.65
2023-03-07T09:38:42.441Z,3.78
2023-03-07T09:39:50.063Z,3.20
2023-03-07T09:40:55.840Z,4.53
2023-03-07T09:42:45.482Z,2.33
2023-03-07T09:44:06.508Z,3.85
2023-03-07T09:45:39.255Z,3.55
2023-03-07T09:47:18.681Z,3.63
2023-03-07T09:49:04.647Z,3.05
2023-03-07T09:50:22.994Z,2.83
2023-03-07T09:51:41.386Z,2.97
2023-03-07T09:52:51.806Z,3.63
2023-03-07T09:54:14.213Z,3.90
2023-03-07T09:55:21.129Z,2.65
2023-03-07T09:56:52.009Z,2.83
2023-03-07T09:58:00.956Z,3.47
2023-03-07T09:59:36.926Z,2.33
2023-03-07T10:00:46.152Z,2.90
2023-03-07T10:02:02.067Z,4.22
2023-03-07T10:03:31.853Z,3.15
2023-03-07T10:05:08.736Z,2.65
2023-03-07T10:06:25.611Z,3.10
2023-03-07T10:07:29.673Z,2.92
2023-03-07T10:08:38.191Z,3.58
2023-03-07T10:09:44.243Z,3.97
2023-03-07T10:11:17.211Z,2.85
2023-03-07T10:12:54.427Z,3.67
2023-03-07T10:14:17.117Z,3.25
2023-03-07T10:15:35.821Z,2.15
2023-03-07T10:16:56.407Z,3.20
2023-03-07T10:18:42.982Z,3.33
2023-03-07T10:19:52.891Z,2.63
2023-03-07T10:21:18.839Z,2.80
2023-03-07T10:22:58.677Z,2.50
2023-03-07T10:24:49.719Z,3.47
2023-03-07T10:26:12.405Z,2.38
2023-03-07T10:27:17.342Z,2.47
2023-03-07T10:28:31.129Z,3.28
2023-03-07T10:29:54.504Z,3.88
2023-03-07T10:31:14.273Z,3.10
2023-03-07T10:32:47.273Z,2.55
2023-03-07T10:33:55.157Z,3.00
2023-03-07T10:35:24.432Z,2.85
2023-03-07T10:36:45.152Z,2.92
2023-03-07T10:38:00.174Z,2.92
2023-03-07T10:39:36.520Z,3.22
2023-03-07T10:41:14.117Z,2.83
2023-03-07T10:42:24.504Z,2.67
2023-03-07T10:43:33.700Z,3.40
2023-03-07T10:44:37.899Z,3.90
2023-03-07T10:45:42.575Z,2.58
2023-03-07T10:46:55.885Z,3.38
2023-03-07T10:48:18.610Z,3.35
2023-03-07T10:49:30.857Z,2.95
2023-03-07T10:50:50.253Z,2.25
2023-03-07T10:52:25.963Z,2.97
2023-03-07T10:53:35.389Z,4.00
2023-03-07T10:54:41.732Z,3.47
2023-03-07T10:55:46.889Z,3.05
2023-03-07T10:57:10.977Z,4.38
2023-03-07T10:58:28.450Z,3.05
2023-03-07T10:59:32.375Z,3.08
2023-03-07T11:00:36.308Z,2.88
2023-03-07T11:01:59.208Z,3.30
2023-03-07T11:03:03.345Z,2.67
2023-03-07T11:04:30.352Z,2.90
2023-03-07T11:05:37.004Z,3.45
2023-03-07T11:06:55.876Z,3.63
2023-03-07T11:08:01.419Z,3.15
2023-03-07T11:09:34.136Z,3.53
2023-03-07T11:10:41.030Z,2.28
2023-03-07T11:11:52.665Z,2.97
2023-03-07T11:12:56.790Z,3.78
2023-03-07T11:14:14.831Z,2.78
2023-03-07T11:15:24.816Z,3.20
2023-03-07T11:16:28.512Z,2.80
2023-03-07T11:17:47.717Z,2.67
2023-03-07T11:18:52.023Z,3.30
2023-03-07T11:19:57.681Z,4.07
2023-03-07T11:21:01.533Z,2.05
2023-03-07T11:22:33.725Z,2.50
2023-03-07T11:23:37.643Z,4.03
2023-03-07T11:24:55.668Z,2.83
2023-03-07T11:26:23.105Z,3.83
2023-03-07T11:27:59.028Z,3.40
2023-03-07T11:29:14.184Z,3.67
2023-03-07T11:30:28.998Z,3.95
2023-03-07T11:31:47.218Z,3.60
2023-03-07T11:33:29.233Z,2.67
2023-03-07T11:35:03.109Z,2.88
2023-03-07T11:36:32.187Z,3.70
2023-03-07T11:37:54.224Z,4.10
2023-03-07T11:39:34.944Z,3.30
2023-03-07T11:41:31.196Z,2.88
2023-03-07T11:43:09.635Z,3.92
2023-03-07T11:45:00.949Z,3.03
2023-03-07T11:46:41.014Z,3.75
2023-03-07T11:48:25.874Z,3.60
2023-03-07T11:49:56.574Z,3.00
2023-03-07T11:51:03.495Z,4.10
2023-03-07T11:52:33.409Z,4.03
2023-03-07T11:54:08.340Z,3.58
2023-03-07T11:55:58.294Z,3.53
2023-03-07T11:57:51.474Z,2.97
2023-03-07T11:59:30.531Z,3.97
2023-03-07T12:00:49.823Z,3.30
2023-03-07T12:02:23.508Z,4.25
2023-03-07T12:03:48.485Z,3.67
2023-03-07T12:05:23.622Z,3.92
2023-03-07T12:07:08.690Z,3.85
2023-03-07T12:08:39.100Z,4.28
2023-03-07T12:10:02.405Z,3.97
2023-03-07T12:11:15.611Z,3.28
2023-03-07T12:12:54.908Z,3.88
2023-03-07T12:14:01.363Z,3.95
2023-03-07T12:15:47.925Z,4.13
2023-03-07T12:17:31.337Z,3.97
2023-03-07T12:19:24.348Z,3.30
2023-03-07T12:20:58.968Z,3.45
2023-03-07T12:22:29.014Z,2.90
2023-03-07T12:23:39.304Z,5.10
2023-03-07T12:25:17.810Z,3.13
2023-03-07T12:27:00.785Z,3.08
2023-03-07T12:28:21.863Z,3.95
2023-03-07T12:29:45.817Z,4.28
2023-03-07T12:31:10.702Z,3.88
2023-03-07T12:32:25.391Z,4.07
2023-03-07T12:33:50.972Z,3.72
2023-03-07T12:35:29.825Z,3.72
2023-03-07T12:36:36.385Z,4.38
2023-03-07T12:38:10.225Z,4.15
2023-03-07T12:39:31.436Z,3.58
2023-03-07T12:40:49.352Z,5.38
2023-03-07T12:42:15.788Z,4.13
2023-03-07T12:43:45.893Z,3.95
2023-03-07T12:45:49.289Z,2.95
2023-03-07T12:47:13.739Z,3.75
2023-03-07T12:48:38.458Z,3.85
2023-03-07T12:49:54.245Z,2.97
2023-03-07T12:51:16.038Z,3.78
2023-03-07T12:52:50.825Z,3.25
2023-03-07T12:54:27.904Z,3.83
2023-03-07T12:56:10.073Z,3.25
2023-03-07T12:57:26.893Z,3.42
2023-03-07T12:59:11.619Z,3.72
2023-03-07T13:00:23.098Z,3.63
2023-03-07T13:01:58.872Z,4.10
2023-03-07T13:03:07.028Z,3.75
2023-03-07T13:04:32.237Z,4.10
2023-03-07T13:05:39.650Z,3.17
2023-03-07T13:06:46.807Z,3.53
2023-03-07T13:07:52.213Z,3.78
2023-03-07T13:09:00.822Z,3.25
2023-03-07T13:10:08.350Z,2.97
2023-03-07T13:11:22.849Z,4.03
2023-03-07T13:12:31.323Z,2.75
2023-03-07T13:13:43.884Z,3.88
2023-03-07T13:15:16.517Z,3.20
2023-03-07T13:16:38.788Z,2.97
2023-03-07T13:17:42.479Z,3.28
2023-03-07T13:18:46.428Z,4.18
2023-03-07T13:19:57.182Z,3.45
2023-03-07T13:21:11.189Z,3.45
2023-03-07T13:22:18.126Z,3.30
2023-03-07T13:23:28.362Z,3.13
2023-03-07T13:24:40.547Z,3.22
2023-03-07T13:25:58.384Z,2.60
2023-03-07T13:27:18.436Z,2.55
2023-03-07T13:28:40.802Z,2.67
2023-03-07T13:30:07.879Z,2.38
2023-03-07T13:31:16.805Z,3.75
2023-03-07T13:32:51.309Z,4.43
2023-03-07T13:33:56.162Z,3.53
2023-03-07T13:35:00.603Z,4.00
2023-03-07T13:36:04.733Z,3.78
2023-03-07T13:37:51.974Z,3.72
2023-03-07T13:38:58.500Z,4.07
2023-03-07T13:40:06.957Z,3.75
2023-03-07T13:41:13.692Z,3.90
2023-03-07T13:42:46.781Z,3.65
2023-03-07T13:43:53.676Z,4.45
2023-03-07T13:45:02.193Z,4.40
2023-03-07T13:46:38.472Z,3.65
2023-03-07T13:47:45.581Z,4.25
2023-03-07T13:48:49.227Z,3.92
2023-03-07T13:49:59.521Z,3.33
2023-03-07T13:51:07.184Z,4.13
2023-03-07T13:52:38.205Z,2.40
2023-03-07T13:53:53.099Z,2.92
2023-03-07T13:55:00.961Z,2.75
2023-03-07T13:56:17.681Z,3.08
2023-03-07T13:57:37.135Z,2.50
2023-03-07T13:59:14.555Z,3.15
2023-03-07T14:00:37.867Z,3.63
2023-03-07T14:02:04.645Z,2.80
2023-03-07T14:03:32.673Z,3.65
2023-03-07T14:04:56.175Z,3.65
2023-03-07T14:06:09.960Z,4.05
2023-03-07T14:07:35.083Z,3.05
2023-03-07T14:08:39.655Z,2.83
2023-03-07T14:09:49.452Z,2.95
2023-03-07T14:10:57.483Z,3.08
2023-03-07T14:12:20.826Z,4.05
2023-03-07T14:14:05.770Z,2.78
2023-03-07T14:15:49.503Z,3.92
2023-03-07T14:17:16.218Z,4.13
2023-03-07T14:18:30.047Z,4.75
2023-03-07T14:19:52.815Z,3.72
2023-03-07T14:21:27.493Z,3.35
2023-03-07T14:23:30.508Z,2.85
2023-03-07T14:24:52.606Z,3.53
2023-03-07T14:26:33.628Z,3.60
2023-03-07T14:28:02.258Z,2.42
2023-03-07T14:29:26.259Z,3.13
2023-03-07T14:30:33.885Z,4.28
2023-03-07T14:31:41.472Z,3.58
2023-03-07T14:32:45.167Z,4.53
2023-03-07T14:33:49.270Z,4.63
2023-03-07T14:34:54.304Z,3.65
2023-03-07T14:35:58.857Z,3.83
2023-03-07T14:37:09.242Z,3.42
2023-03-07T14:38:26.628Z,3.60
2023-03-07T14:40:11.086Z,3.58
2023-03-07T14:41:51.379Z,3.38
2023-03-07T14:43:22.876Z,2.90
2023-03-07T14:45:10.464Z,3.88
2023-03-07T14:46:52.698Z,2.88
2023-03-07T14:48:31.589Z,2.72
2023-03-07T14:49:50.081Z,2.83
2023-03-07T14:50:54.640Z,2.95
2023-03-07T14:51:59.264Z,3.33
2023-03-07T14:53:38.371Z,3.28
2023-03-07T14:54:47.652Z,2.90
2023-03-07T14:55:56.919Z,4.18
2023-03-07T14:57:02.199Z,3.78
2023-03-07T14:58:07.089Z,3.78
2023-03-07T14:59:27.700Z,3.80
2023-03-07T15:00:34.790Z,3.90
2023-03-07T15:01:43.027Z,4.05
2023-03-07T15:03:04.969Z,3.42
2023-03-07T15:04:34.029Z,2.95
2023-03-07T15:06:00.743Z,3.25
2023-03-07T15:07:11.579Z,2.78
2023-03-07T15:08:45.099Z,3.47
2023-03-07T15:09:48.974Z,3.72
2023-03-07T15:11:30.305Z,4.03
2023-03-07T15:12:34.154Z,3.22
2023-03-07T15:13:41.358Z,2.88
2023-03-07T15:14:51.115Z,3.67
2023-03-07T15:16:03.845Z,3.47
2023-03-07T15:17:28.958Z,2.72
2023-03-07T15:18:50.857Z,2.72
2023-03-07T15:20:10.647Z,4.05
2023-03-07T15:21:22.009Z,3.00
2023-03-07T15:22:30.541Z,2.58
2023-03-07T15:23:35.422Z,2.88
2023-03-07T15:24:45.066Z,3.65
2023-03-07T15:25:49.746Z,3.97
2023-03-07T15:26:55.947Z,3.17
2023-03-07T15:28:17.739Z,2.95
2023-03-07T15:29:26.265Z,3.47
2023-03-07T15:30:37.883Z,3.47
2023-03-07T15:32:07.214Z,3.97
2023-03-07T15:33:20.329Z,2.42
2023-03-07T15:34:34.743Z,3.45
2023-03-07T15:35:38.701Z,3.47
2023-03-07T15:36:42.624Z,3.45
2023-03-07T15:37:57.164Z,3.00
2023-03-07T15:39:29.092Z,3.35
2023-03-07T15:40:35.712Z,3.15
2023-03-07T15:41:39.433Z,3.45